Time;durP1;ratioP1;P1;durP2;ratioP2;P2;SDS_P1;SDS_P2;PMS_P1;PMS_P2;Temp;Humidity;BMP_temperature;BMP_pressure;BME280_temperature;BME280_humidity;BME280_pressure;Samples;Min_cycle;Max_cycle;Signal;HPM_P1;HPM_P2
2022/02/12 00:00:04;;;;;;;0.20;0.15;;;;;;;;;;4130201;28;20061;-55
2022/02/12 00:02:12;;;;;;;0.25;0.10;;;;;;;;;;4131018;28;20490;-56
2022/02/12 00:04:13;;;;;;;0.60;0.20;;;;;;;;;;4131582;28;20112;-56
2022/02/12 00:06:14;;;;;;;0.32;0.17;;;;;;;;;;4131141;28;20443;-55
2022/02/12 00:08:16;;;;;;;0.32;0.25;;;;;;;;;;4131492;28;20156;-55
2022/02/12 00:10:17;;;;;;;0.40;0.10;;;;;;;;;;4131196;28;20058;-51
2022/02/12 00:12:18;;;;;;;0.10;0.10;;;;;;;;;;4113926;28;20063;-56
2022/02/12 00:14:19;;;;;;;0.13;0.13;;;;;;;;;;4131253;28;20050;-55
2022/02/12 00:16:20;;;;;;;0.30;0.20;;;;;;;;;;4113735;28;20419;-56
2022/02/12 00:18:22;;;;;;;0.20;0.10;;;;;;;;;;4130545;28;20054;-55
2022/02/12 00:20:23;;;;;;;0.13;0.10;;;;;;;;;;4130994;28;20361;-55
2022/02/12 00:22:24;;;;;;;0.20;0.10;;;;;;;;;;4131097;28;20077;-50
2022/02/12 00:24:25;;;;;;;0.63;0.10;;;;;;;;;;4130819;28;20513;-52
2022/02/12 00:26:26;;;;;;;1.17;0.22;;;;;;;;;;4130730;28;20069;-50
2022/02/12 00:28:27;;;;;;;1.48;0.20;;;;;;;;;;4130728;28;20548;-50
2022/02/12 00:30:29;;;;;;;0.10;0.10;;;;;;;;;;4130859;28;20058;-52
2022/02/12 00:32:30;;;;;;;0.20;0.20;;;;;;;;;;4130306;28;20085;-51
2022/02/12 00:34:31;;;;;;;0.30;0.20;;;;;;;;;;4130700;28;20125;-51
2022/02/12 00:36:32;;;;;;;0.10;0.10;;;;;;;;;;4130585;28;20058;-54
2022/02/12 00:38:33;;;;;;;1.67;0.22;;;;;;;;;;4130655;28;20062;-50
2022/02/12 00:40:35;;;;;;;0.30;0.10;;;;;;;;;;4129412;28;20058;-51
2022/02/12 00:42:36;;;;;;;0.77;0.28;;;;;;;;;;4130586;28;20108;-51
2022/02/12 00:44:37;;;;;;;0.65;0.20;;;;;;;;;;4130692;28;20058;-53
2022/02/12 00:46:38;;;;;;;0.60;0.20;;;;;;;;;;4130069;28;20058;-53
2022/02/12 00:48:39;;;;;;;0.15;0.13;;;;;;;;;;4129310;28;20061;-51
2022/02/12 00:50:40;;;;;;;0.38;0.10;;;;;;;;;;4130608;28;20216;-53
2022/02/12 00:52:41;;;;;;;0.40;0.20;;;;;;;;;;4130460;28;20406;-53
2022/02/12 00:54:43;;;;;;;0.47;0.17;;;;;;;;;;4130360;28;20178;-53
2022/02/12 00:56:44;;;;;;;0.22;0.10;;;;;;;;;;4130265;28;20117;-52
2022/02/12 00:58:45;;;;;;;0.10;0.10;;;;;;;;;;4130338;28;20050;-52
2022/02/12 01:00:46;;;;;;;0.20;0.20;;;;;;;;;;4130679;28;20070;-54
2022/02/12 01:02:47;;;;;;;0.50;0.20;;;;;;;;;;4129824;28;20395;-51
2022/02/12 01:04:49;;;;;;;0.20;0.20;;;;;;;;;;4130278;28;20062;-54
2022/02/12 01:06:50;;;;;;;0.38;0.10;;;;;;;;;;4130461;28;20158;-49
2022/02/12 01:08:51;;;;;;;0.40;0.10;;;;;;;;;;4130065;28;20105;-52
2022/02/12 01:10:52;;;;;;;0.32;0.13;;;;;;;;;;4130621;28;20058;-52
2022/02/12 01:12:53;;;;;;;0.10;0.10;;;;;;;;;;4130147;28;20431;-50
2022/02/12 01:14:54;;;;;;;0.20;0.20;;;;;;;;;;4130338;28;20046;-52
2022/02/12 01:16:55;;;;;;;0.90;0.13;;;;;;;;;;4130013;28;20120;-54
2022/02/12 01:18:56;;;;;;;0.08;0.08;;;;;;;;;;4130234;28;20121;-54
2022/02/12 01:20:58;;;;;;;0.80;0.30;;;;;;;;;;4130264;28;20538;-49
2022/02/12 01:23:01;;;;;;;0.20;0.17;;;;;;;;;;4130014;28;20090;-52
2022/02/12 01:25:02;;;;;;;0.63;0.30;;;;;;;;;;4130148;28;20105;-52
2022/02/12 01:27:03;;;;;;;0.13;0.10;;;;;;;;;;4130181;28;20549;-53
2022/02/12 01:29:05;;;;;;;0.30;0.20;;;;;;;;;;4130371;28;20109;-56
2022/02/12 01:31:06;;;;;;;0.10;0.10;;;;;;;;;;4130487;28;20093;-49
2022/02/12 01:33:07;;;;;;;0.10;0.10;;;;;;;;;;4129782;28;20109;-51
2022/02/12 01:35:08;;;;;;;0.10;0.10;;;;;;;;;;4130283;28;20065;-55
2022/02/12 01:37:10;;;;;;;0.40;0.20;;;;;;;;;;4130737;28;20046;-54
2022/02/12 01:39:11;;;;;;;0.15;0.10;;;;;;;;;;4133398;28;20089;-50
2022/02/12 01:41:12;;;;;;;0.13;0.13;;;;;;;;;;4133514;28;20497;-50
2022/02/12 01:43:14;;;;;;;0.30;0.10;;;;;;;;;;4133440;28;20085;-55
2022/02/12 01:45:15;;;;;;;0.30;0.10;;;;;;;;;;4133314;28;20054;-50
2022/02/12 01:47:17;;;;;;;0.30;0.30;;;;;;;;;;4132780;28;20058;-51
2022/02/12 01:49:18;;;;;;;0.10;0.10;;;;;;;;;;4133313;28;20080;-52
2022/02/12 01:51:22;;;;;;;0.10;0.10;;;;;;;;;;4133074;28;20449;-53
2022/02/12 01:53:25;;;;;;;0.38;0.20;;;;;;;;;;4133054;28;20069;-56
2022/02/12 01:55:27;;;;;;;0.13;0.10;;;;;;;;;;4133304;28;20204;-52
2022/02/12 01:57:28;;;;;;;0.43;0.20;;;;;;;;;;4133086;28;20127;-54
2022/02/12 01:59:31;;;;;;;0.30;0.15;;;;;;;;;;4133247;28;20113;-50
2022/02/12 02:01:32;;;;;;;0.63;0.10;;;;;;;;;;4132873;28;20163;-56
2022/02/12 02:03:33;;;;;;;0.17;0.15;;;;;;;;;;4115499;28;20062;-55
2022/02/12 02:05:34;;;;;;;1.42;0.10;;;;;;;;;;4133056;28;20058;-55
2022/02/12 02:07:37;;;;;;;0.10;0.10;;;;;;;;;;4132944;28;20457;-56
2022/02/12 02:09:38;;;;;;;0.10;0.10;;;;;;;;;;4133001;28;20521;-52
2022/02/12 02:11:40;;;;;;;0.57;0.30;;;;;;;;;;4132940;28;20486;-54
2022/02/12 02:13:41;;;;;;;0.40;0.20;;;;;;;;;;4132845;28;20486;-51
2022/02/12 02:15:42;;;;;;;0.10;0.10;;;;;;;;;;4132916;28;20509;-53
2022/02/12 02:17:43;;;;;;;0.25;0.20;;;;;;;;;;4131129;28;20145;-52
2022/02/12 02:19:44;;;;;;;0.25;0.10;;;;;;;;;;4132969;28;20564;-55
2022/02/12 02:21:47;;;;;;;0.40;0.13;;;;;;;;;;4132703;28;20097;-54
2022/02/12 02:23:47;;;;;;;0.45;0.20;;;;;;;;;;4132041;28;20113;-51
2022/02/12 02:25:49;;;;;;;0.20;0.10;;;;;;;;;;4132457;28;20054;-54
2022/02/12 02:27:50;;;;;;;0.10;0.10;;;;;;;;;;4132830;28;20090;-49
2022/02/12 02:29:51;;;;;;;0.30;0.20;;;;;;;;;;4115664;28;20098;-55
2022/02/12 02:31:52;;;;;;;0.35;0.13;;;;;;;;;;4132373;28;20062;-49
2022/02/12 02:33:53;;;;;;;0.20;0.17;;;;;;;;;;4132802;28;20058;-55
2022/02/12 02:35:55;;;;;;;0.47;0.20;;;;;;;;;;4132365;28;20522;-55
2022/02/12 02:38:07;;;;;;;0.30;0.28;;;;;;;;;;4147427;28;20054;-50
2022/02/12 02:40:11;;;;;;;0.10;0.10;;;;;;;;;;4132714;28;20572;-55
2022/02/12 02:42:13;;;;;;;0.10;0.10;;;;;;;;;;4132778;28;20062;-50
2022/02/12 02:44:14;;;;;;;0.80;0.10;;;;;;;;;;4132311;28;20395;-54
2022/02/12 02:46:15;;;;;;;0.10;0.10;;;;;;;;;;4132541;28;20395;-56
2022/02/12 02:48:16;;;;;;;0.17;0.10;;;;;;;;;;4130786;28;20062;-53
2022/02/12 02:57:18;;;;;;;;;;;;;;;;;;4132763;28;20055;-51
2022/02/12 02:59:19;;;;;;;0.10;0.10;;;;;;;;;;4132530;28;19922;-53
2022/02/12 03:01:23;;;;;;;0.05;0.05;;;;;;;;;;4132328;28;20066;-55
2022/02/12 03:03:24;;;;;;;0.10;0.10;;;;;;;;;;4131942;28;20146;-54
2022/02/12 03:05:25;;;;;;;0.20;0.20;;;;;;;;;;4132017;28;20449;-54
2022/02/12 03:07:27;;;;;;;0.52;0.20;;;;;;;;;;4132172;28;20386;-54
2022/02/12 03:09:28;;;;;;;0.40;0.15;;;;;;;;;;4132269;28;20066;-53
2022/02/12 03:11:29;;;;;;;0.10;0.10;;;;;;;;;;4131997;28;20058;-50
2022/02/12 03:13:30;;;;;;;0.30;0.10;;;;;;;;;;4132373;28;20144;-52
2022/02/12 03:15:32;;;;;;;0.10;0.10;;;;;;;;;;4132291;28;20042;-52
2022/02/12 03:17:33;;;;;;;0.15;0.10;;;;;;;;;;4131727;28;20063;-54
2022/02/12 03:19:34;;;;;;;0.30;0.10;;;;;;;;;;4131851;28;20467;-49
2022/02/12 03:21:35;;;;;;;0.10;0.10;;;;;;;;;;4132227;28;20120;-53
2022/02/12 03:23:37;;;;;;;0.10;0.10;;;;;;;;;;4131962;28;20548;-54
2022/02/12 03:25:38;;;;;;;0.20;0.17;;;;;;;;;;4130445;28;20062;-50
2022/02/12 03:27:39;;;;;;;0.13;0.10;;;;;;;;;;4131862;28;20054;-56
2022/02/12 03:29:41;;;;;;;0.20;0.10;;;;;;;;;;4131752;28;20054;-51
2022/02/12 03:31:42;;;;;;;0.10;0.10;;;;;;;;;;4131352;28;20058;-52
2022/02/12 03:33:43;;;;;;;0.05;0.05;;;;;;;;;;4131748;28;20497;-52
2022/02/12 03:35:46;;;;;;;0.10;0.10;;;;;;;;;;4131633;28;20497;-55
2022/02/12 03:37:47;;;;;;;0.10;0.10;;;;;;;;;;4131857;28;20062;-53
2022/02/12 03:39:48;;;;;;;0.05;0.05;;;;;;;;;;4131631;28;20073;-51
2022/02/12 03:41:49;;;;;;;0.32;0.20;;;;;;;;;;4130557;28;20062;-56
2022/02/12 03:43:50;;;;;;;0.10;0.10;;;;;;;;;;4131890;28;20054;-51
2022/02/12 03:45:53;;;;;;;0.28;0.10;;;;;;;;;;4131464;28;20050;-50
2022/02/12 03:47:54;;;;;;;0.22;0.10;;;;;;;;;;4131035;28;20522;-54
2022/02/12 03:49:55;;;;;;;0.40;0.13;;;;;;;;;;4124062;28;20108;-57
2022/02/12 03:51:56;;;;;;;0.13;0.10;;;;;;;;;;4131634;28;20062;-55
2022/02/12 03:53:57;;;;;;;0.38;0.25;;;;;;;;;;4131666;28;20058;-56
2022/02/12 03:55:58;;;;;;;0.28;0.20;;;;;;;;;;4131532;28;20482;-52
2022/02/12 03:57:59;;;;;;;0.30;0.10;;;;;;;;;;4131511;28;20062;-60
2022/02/12 04:00:01;;;;;;;0.10;0.10;;;;;;;;;;4131292;28;20062;-55
2022/02/12 04:02:03;;;;;;;0.32;0.15;;;;;;;;;;4130730;28;20066;-54
2022/02/12 04:04:04;;;;;;;0.50;0.15;;;;;;;;;;4131514;28;20120;-57
2022/02/12 04:06:05;;;;;;;0.10;0.10;;;;;;;;;;4131171;28;20057;-57
2022/02/12 04:08:07;;;;;;;0.40;0.20;;;;;;;;;;4131216;28;20062;-52
2022/02/12 04:10:10;;;;;;;0.30;0.17;;;;;;;;;;4131520;28;20054;-52
2022/02/12 04:12:11;;;;;;;0.20;0.10;;;;;;;;;;4131395;28;20121;-49
2022/02/12 04:14:12;;;;;;;0.10;0.10;;;;;;;;;;4131206;28;20163;-54
2022/02/12 04:16:13;;;;;;;0.20;0.20;;;;;;;;;;4131164;28;20081;-53
2022/02/12 04:18:15;;;;;;;0.20;0.20;;;;;;;;;;4130559;28;20058;-55
2022/02/12 04:20:19;;;;;;;0.20;0.10;;;;;;;;;;4131175;28;20403;-55
2022/02/12 04:22:20;;;;;;;0.10;0.10;;;;;;;;;;4131156;28;20058;-56
2022/02/12 04:24:21;;;;;;;0.30;0.10;;;;;;;;;;4131086;28;20116;-56
2022/02/12 04:26:23;;;;;;;0.40;0.10;;;;;;;;;;4146881;28;20062;-51
2022/02/12 04:28:25;;;;;;;0.22;0.00;;;;;;;;;;4147231;28;20116;-56
2022/02/12 04:30:28;;;;;;;0.20;0.10;;;;;;;;;;4147235;28;20058;-49
2022/02/12 04:32:29;;;;;;;0.63;0.25;;;;;;;;;;4146565;28;20462;-54
2022/02/12 04:34:30;;;;;;;0.30;0.13;;;;;;;;;;4147070;28;20062;-53
2022/02/12 04:36:32;;;;;;;0.13;0.10;;;;;;;;;;4133346;28;20120;-56
2022/02/12 04:38:33;;;;;;;0.35;0.20;;;;;;;;;;4130764;28;20050;-54
2022/02/12 04:40:36;;;;;;;0.20;0.10;;;;;;;;;;4131057;28;20066;-55
2022/02/12 04:42:38;;;;;;;0.32;0.13;;;;;;;;;;4146887;28;20061;-53
2022/02/12 04:44:41;;;;;;;0.10;0.10;;;;;;;;;;4147126;28;20073;-54
2022/02/12 04:46:42;;;;;;;0.60;0.20;;;;;;;;;;4146558;28;20050;-54
2022/02/12 04:48:48;;;;;;;0.20;0.10;;;;;;;;;;4146744;28;20058;-53
2022/02/12 04:50:50;;;;;;;0.13;0.10;;;;;;;;;;4146778;28;20100;-54
2022/02/12 04:52:51;;;;;;;0.40;0.10;;;;;;;;;;4146791;28;20103;-53
2022/02/12 04:54:53;;;;;;;0.47;0.15;;;;;;;;;;4147156;28;20046;-53
2022/02/12 04:56:54;;;;;;;0.28;0.10;;;;;;;;;;4146629;28;20054;-49
2022/02/12 04:58:55;;;;;;;0.15;0.10;;;;;;;;;;4146819;28;20100;-54
2022/02/12 05:00:56;;;;;;;0.70;0.13;;;;;;;;;;4146891;28;20339;-54
2022/02/12 05:02:59;;;;;;;0.28;0.10;;;;;;;;;;4146251;28;20058;-54
2022/02/12 05:05:00;;;;;;;0.52;0.30;;;;;;;;;;4146862;28;20054;-53
2022/02/12 05:07:01;;;;;;;0.10;0.10;;;;;;;;;;4146583;28;20085;-51
2022/02/12 05:09:03;;;;;;;0.22;0.10;;;;;;;;;;4145357;28;20106;-55
2022/02/12 05:11:04;;;;;;;0.75;0.17;;;;;;;;;;4145838;28;20058;-56
2022/02/12 05:13:05;;;;;;;0.10;0.10;;;;;;;;;;4146804;28;20119;-55
2022/02/12 05:15:07;;;;;;;0.30;0.15;;;;;;;;;;4146495;28;20787;-52
2022/02/12 05:17:08;;;;;;;0.10;0.10;;;;;;;;;;4145136;28;20050;-54
2022/02/12 05:19:09;;;;;;;0.28;0.10;;;;;;;;;;4146574;28;20460;-55
2022/02/12 05:21:10;;;;;;;0.45;0.10;;;;;;;;;;4146455;28;20409;-52
2022/02/12 05:23:12;;;;;;;0.10;0.10;;;;;;;;;;4146589;28;20058;-51
2022/02/12 05:25:13;;;;;;;0.30;0.20;;;;;;;;;;4146063;28;20382;-53
2022/02/12 05:27:14;;;;;;;0.22;0.10;;;;;;;;;;4146445;28;20124;-50
2022/02/12 05:29:15;;;;;;;0.17;0.10;;;;;;;;;;4128915;28;20497;-55
2022/02/12 05:31:16;;;;;;;0.17;0.17;;;;;;;;;;4146558;28;20065;-52
2022/02/12 05:33:17;;;;;;;0.10;0.10;;;;;;;;;;4145814;28;20074;-52
2022/02/12 05:35:18;;;;;;;0.90;0.22;;;;;;;;;;4142934;28;20120;-55
2022/02/12 05:37:20;;;;;;;0.17;0.10;;;;;;;;;;4130024;28;20062;-53
2022/02/12 05:39:21;;;;;;;0.20;0.20;;;;;;;;;;4130439;28;20109;-56
2022/02/12 05:41:22;;;;;;;0.22;0.20;;;;;;;;;;4130105;28;20371;-51
2022/02/12 05:43:23;;;;;;;0.28;0.10;;;;;;;;;;4129832;28;20406;-54
2022/02/12 05:45:24;;;;;;;0.57;0.10;;;;;;;;;;4129982;28;20046;-56
2022/02/12 05:47:25;;;;;;;0.10;0.10;;;;;;;;;;4129591;28;20192;-53
2022/02/12 05:49:26;;;;;;;0.10;0.10;;;;;;;;;;4130159;28;20054;-51
2022/02/12 05:51:31;;;;;;;0.10;0.10;;;;;;;;;;4130287;28;20081;-52
2022/02/12 05:53:32;;;;;;;0.25;0.20;;;;;;;;;;4130255;28;20105;-52
2022/02/12 05:55:33;;;;;;;0.25;0.10;;;;;;;;;;4129925;28;20093;-53
2022/02/12 05:57:34;;;;;;;0.17;0.10;;;;;;;;;;4129819;28;20395;-55
2022/02/12 05:59:36;;;;;;;0.25;0.10;;;;;;;;;;4129932;28;20109;-51
2022/02/12 06:01:37;;;;;;;0.20;0.10;;;;;;;;;;4129773;28;20054;-55
2022/02/12 06:03:38;;;;;;;0.68;0.10;;;;;;;;;;4143788;28;20363;-55
2022/02/12 06:05:39;;;;;;;0.68;0.13;;;;;;;;;;4146260;28;20062;-54
2022/02/12 06:07:40;;;;;;;0.22;0.20;;;;;;;;;;4145971;28;20469;-52
2022/02/12 06:09:41;;;;;;;0.15;0.10;;;;;;;;;;4146369;28;20100;-54
2022/02/12 06:11:42;;;;;;;0.98;0.20;;;;;;;;;;4146059;28;20054;-57
2022/02/12 06:13:43;;;;;;;0.38;0.20;;;;;;;;;;4145911;28;20045;-54
2022/02/12 06:15:45;;;;;;;0.20;0.00;;;;;;;;;;4128640;28;20058;-51
2022/02/12 06:17:46;;;;;;;0.10;0.10;;;;;;;;;;4145606;28;20061;-53
2022/02/12 06:19:47;;;;;;;0.20;0.10;;;;;;;;;;4145996;28;20409;-52
2022/02/12 06:21:48;;;;;;;0.30;0.10;;;;;;;;;;4146002;28;20061;-53
2022/02/12 06:23:50;;;;;;;0.40;0.10;;;;;;;;;;4131436;28;20492;-53
2022/02/12 06:25:51;;;;;;;0.30;0.20;;;;;;;;;;4149019;28;20061;-54
2022/02/12 06:27:52;;;;;;;0.82;0.10;;;;;;;;;;4131487;28;20054;-55
2022/02/12 06:29:54;;;;;;;0.22;0.20;;;;;;;;;;4147667;28;20054;-54
2022/02/12 06:31:55;;;;;;;0.28;0.20;;;;;;;;;;4148551;28;20073;-51
2022/02/12 06:33:56;;;;;;;0.30;0.20;;;;;;;;;;4148946;28;20058;-52
2022/02/12 06:35:57;;;;;;;0.10;0.10;;;;;;;;;;4140212;28;20108;-56
2022/02/12 06:37:59;;;;;;;0.35;0.15;;;;;;;;;;4132588;28;20474;-54
2022/02/12 06:40:00;;;;;;;0.70;0.10;;;;;;;;;;4132637;28;20391;-53
2022/02/12 06:42:01;;;;;;;0.68;0.10;;;;;;;;;;4148540;28;20156;-50
2022/02/12 06:44:02;;;;;;;0.25;0.17;;;;;;;;;;4148754;28;20104;-53
2022/02/12 06:46:03;;;;;;;0.17;0.10;;;;;;;;;;4148480;28;20493;-54
2022/02/12 06:48:05;;;;;;;0.30;0.17;;;;;;;;;;4148085;28;20359;-53
2022/02/12 06:50:06;;;;;;;0.13;0.10;;;;;;;;;;4148739;28;20500;-52
2022/02/12 06:52:07;;;;;;;0.45;0.13;;;;;;;;;;4148720;28;20516;-53
2022/02/12 06:54:08;;;;;;;0.47;0.20;;;;;;;;;;4148647;28;20064;-52
2022/02/12 06:56:10;;;;;;;0.30;0.30;;;;;;;;;;4147403;28;20057;-53
2022/02/12 06:58:11;;;;;;;0.52;0.20;;;;;;;;;;4148367;28;20057;-54
2022/02/12 07:00:12;;;;;;;0.50;0.20;;;;;;;;;;4148498;28;20461;-51
2022/02/12 07:02:13;;;;;;;0.20;0.10;;;;;;;;;;4147959;28;20058;-52
2022/02/12 07:04:14;;;;;;;0.55;0.10;;;;;;;;;;4148543;28;20100;-55
2022/02/12 07:06:15;;;;;;;0.43;0.20;;;;;;;;;;4148233;28;20107;-54
2022/02/12 07:08:17;;;;;;;0.30;0.10;;;;;;;;;;4148517;28;20061;-52
2022/02/12 07:10:18;;;;;;;0.17;0.10;;;;;;;;;;4148557;28;20108;-53
2022/02/12 07:12:19;;;;;;;0.50;0.17;;;;;;;;;;4148216;28;20394;-55
2022/02/12 07:14:20;;;;;;;0.28;0.20;;;;;;;;;;4148521;28;20103;-56
2022/02/12 07:16:21;;;;;;;0.75;0.20;;;;;;;;;;4130781;28;20493;-51
2022/02/12 07:18:22;;;;;;;0.20;0.10;;;;;;;;;;4147700;28;20081;-52
2022/02/12 07:20:24;;;;;;;0.55;0.20;;;;;;;;;;4148260;28;20061;-55
2022/02/12 07:22:26;;;;;;;0.17;0.10;;;;;;;;;;4148134;28;20062;-55
2022/02/12 07:24:27;;;;;;;0.17;0.13;;;;;;;;;;4146874;28;20065;-54
2022/02/12 07:26:28;;;;;;;0.20;0.20;;;;;;;;;;4147948;28;20096;-55
2022/02/12 07:28:30;;;;;;;0.20;0.10;;;;;;;;;;4147956;28;20058;-53
2022/02/12 07:30:31;;;;;;;0.10;0.10;;;;;;;;;;4148240;28;20065;-54
2022/02/12 07:32:33;;;;;;;0.10;0.10;;;;;;;;;;4147479;28;20050;-54
2022/02/12 07:34:35;;;;;;;0.17;0.10;;;;;;;;;;4147329;28;20104;-55
2022/02/12 07:36:36;;;;;;;0.30;0.20;;;;;;;;;;4133801;28;20069;-54
2022/02/12 07:38:38;;;;;;;0.10;0.10;;;;;;;;;;4131604;28;20113;-53
2022/02/12 07:40:39;;;;;;;0.57;0.30;;;;;;;;;;4114516;28;20066;-54
2022/02/12 07:42:41;;;;;;;0.10;0.10;;;;;;;;;;4131732;28;20051;-51
2022/02/12 07:44:42;;;;;;;0.20;0.10;;;;;;;;;;4131610;28;20490;-56
2022/02/12 07:46:44;;;;;;;0.52;0.20;;;;;;;;;;4114045;28;20174;-51
2022/02/12 07:48:45;;;;;;;0.10;0.10;;;;;;;;;;4131383;28;20065;-56
2022/02/12 07:50:46;;;;;;;0.10;0.10;;;;;;;;;;4131665;28;20105;-51
2022/02/12 07:52:47;;;;;;;0.77;0.38;;;;;;;;;;4131199;28;20054;-54
2022/02/12 07:54:48;;;;;;;0.50;0.17;;;;;;;;;;4131573;28;20106;-51
2022/02/12 07:56:53;;;;;;;0.20;0.10;;;;;;;;;;4131343;28;20054;-51
2022/02/12 07:58:55;;;;;;;0.20;0.10;;;;;;;;;;4131452;28;20458;-55
2022/02/12 08:00:56;;;;;;;0.32;0.10;;;;;;;;;;4131224;28;20069;-51
2022/02/12 08:02:57;;;;;;;0.45;0.20;;;;;;;;;;4130914;28;20421;-54
2022/02/12 08:04:59;;;;;;;0.20;0.15;;;;;;;;;;4131433;28;20104;-51
2022/02/12 08:09:19;;;;;;;0.10;0.10;;;;;;;;;;4131078;28;20498;-53
2022/02/12 08:11:23;;;;;;;0.30;0.20;;;;;;;;;;4113918;28;20149;-55
2022/02/12 08:13:24;;;;;;;1.20;0.30;;;;;;;;;;4131273;28;20054;-55
2022/02/12 08:15:26;;;;;;;0.52;0.30;;;;;;;;;;4131225;28;20494;-54
2022/02/12 08:17:27;;;;;;;0.47;0.25;;;;;;;;;;4130660;28;20457;-53
2022/02/12 08:19:28;;;;;;;1.02;0.22;;;;;;;;;;4131204;28;20149;-54
2022/02/12 08:21:31;;;;;;;1.55;0.22;;;;;;;;;;4131191;28;20150;-54
2022/02/12 08:23:32;;;;;;;0.40;0.20;;;;;;;;;;4130840;28;20473;-55
2022/02/12 08:25:34;;;;;;;0.30;0.10;;;;;;;;;;4130845;28;20112;-53
2022/02/12 08:27:35;;;;;;;0.10;0.10;;;;;;;;;;4130850;28;20058;-56
2022/02/12 08:29:40;;;;;;;0.30;0.10;;;;;;;;;;4131139;28;20062;-54
2022/02/12 08:31:42;;;;;;;0.60;0.17;;;;;;;;;;4130215;28;20457;-53
2022/02/12 08:33:43;;;;;;;0.52;0.38;;;;;;;;;;4130794;28;20058;-50
2022/02/12 08:35:44;;;;;;;1.95;0.10;;;;;;;;;;4130590;28;20050;-52
2022/02/12 08:37:45;;;;;;;0.65;0.22;;;;;;;;;;4130701;28;20453;-50
2022/02/12 08:39:48;;;;;;;0.40;0.20;;;;;;;;;;4130853;28;20561;-51
2022/02/12 08:41:50;;;;;;;0.32;0.20;;;;;;;;;;4130624;28;20086;-54
2022/02/12 08:43:51;;;;;;;0.70;0.22;;;;;;;;;;4130714;28;20458;-51
2022/02/12 08:45:52;;;;;;;0.22;0.13;;;;;;;;;;4129178;28;20057;-49
2022/02/12 08:47:54;;;;;;;0.30;0.10;;;;;;;;;;4130177;28;20470;-51
2022/02/12 08:49:55;;;;;;;0.55;0.20;;;;;;;;;;4131024;28;20054;-49
2022/02/12 08:51:56;;;;;;;0.38;0.20;;;;;;;;;;4146557;28;20565;-51
2022/02/12 08:53:57;;;;;;;0.10;0.10;;;;;;;;;;4147115;28;20116;-53
2022/02/12 08:55:58;;;;;;;0.80;0.35;;;;;;;;;;4146679;28;20128;-55
2022/02/12 08:57:59;;;;;;;0.10;0.10;;;;;;;;;;4147114;28;20120;-54
2022/02/12 09:00:00;;;;;;;0.68;0.32;;;;;;;;;;4146781;28;20516;-50
2022/02/12 09:02:01;;;;;;;0.60;0.30;;;;;;;;;;4146564;28;20100;-49
2022/02/12 09:04:07;;;;;;;0.50;0.20;;;;;;;;;;4146655;28;20123;-51
2022/02/12 09:06:08;;;;;;;0.55;0.13;;;;;;;;;;4146650;28;20054;-53
2022/02/12 09:08:11;;;;;;;0.95;0.22;;;;;;;;;;4146390;28;20065;-53
2022/02/12 09:10:11;;;;;;;0.13;0.10;;;;;;;;;;4147036;28;20057;-55
2022/02/12 09:12:13;;;;;;;0.70;0.20;;;;;;;;;;4147681;28;20112;-55
2022/02/12 09:14:14;;;;;;;1.10;0.20;;;;;;;;;;4148534;28;20058;-56
2022/02/12 09:16:17;;;;;;;0.52;0.30;;;;;;;;;;4148056;28;20069;-55
2022/02/12 09:18:18;;;;;;;0.93;0.38;;;;;;;;;;4147402;28;20100;-54
2022/02/12 09:20:19;;;;;;;0.20;0.20;;;;;;;;;;4148273;28;20099;-55
2022/02/12 09:22:20;;;;;;;0.63;0.30;;;;;;;;;;4148214;28;20068;-55
2022/02/12 09:24:22;;;;;;;0.40;0.20;;;;;;;;;;4147972;28;20073;-53
2022/02/12 09:26:29;;;;;;;0.57;0.40;;;;;;;;;;4146744;28;20111;-55
2022/02/12 09:28:31;;;;;;;0.85;0.30;;;;;;;;;;4147556;28;20057;-55
2022/02/12 09:30:32;;;;;;;1.48;0.40;;;;;;;;;;4146927;28;20457;-51
2022/02/12 09:32:33;;;;;;;0.50;0.20;;;;;;;;;;4146551;28;20404;-55
2022/02/12 09:34:34;;;;;;;1.13;0.30;;;;;;;;;;4147112;28;20108;-54
2022/02/12 09:36:37;;;;;;;1.08;0.20;;;;;;;;;;4132903;28;20057;-54
2022/02/12 09:38:38;;;;;;;1.50;0.40;;;;;;;;;;4130330;28;20113;-55
2022/02/12 09:40:39;;;;;;;0.63;0.22;;;;;;;;;;4129129;28;20113;-53
2022/02/12 09:42:40;;;;;;;1.00;0.30;;;;;;;;;;4130128;28;20062;-51
2022/02/12 09:44:42;;;;;;;2.00;0.40;;;;;;;;;;4130011;28;20402;-54
2022/02/12 09:46:46;;;;;;;0.32;0.22;;;;;;;;;;4129810;28;20062;-52
2022/02/12 09:48:47;;;;;;;0.47;0.30;;;;;;;;;;4130261;28;20058;-52
2022/02/12 09:50:51;;;;;;;1.05;0.40;;;;;;;;;;4130357;28;20057;-55
2022/02/12 09:52:53;;;;;;;0.32;0.20;;;;;;;;;;4128746;28;20061;-51
2022/02/12 09:54:55;;;;;;;1.15;0.28;;;;;;;;;;4130156;28;20054;-53
2022/02/12 09:56:57;;;;;;;0.95;0.40;;;;;;;;;;4112628;28;20094;-55
2022/02/12 09:58:58;;;;;;;0.93;0.30;;;;;;;;;;4115967;28;20055;-53
2022/02/12 10:00:59;;;;;;;1.20;0.30;;;;;;;;;;4133164;28;20058;-54
2022/02/12 10:03:00;;;;;;;0.45;0.10;;;;;;;;;;4131204;28;20498;-53
2022/02/12 10:05:30;;;;;;;1.67;0.40;;;;;;;;;;4133053;28;20157;-53
2022/02/12 10:07:31;;;;;;;2.08;0.40;;;;;;;;;;4133049;28;20061;-54
2022/02/12 10:09:33;;;;;;;1.35;0.40;;;;;;;;;;4132139;28;20058;-57
2022/02/12 10:11:49;;;;;;;0.40;0.20;;;;;;;;;;4149276;28;20116;-54
2022/02/12 10:13:50;;;;;;;1.25;0.47;;;;;;;;;;4149345;28;20429;-55
2022/02/12 10:15:56;;;;;;;1.45;0.38;;;;;;;;;;4149233;28;20120;-55
2022/02/12 10:17:59;;;;;;;0.50;0.28;;;;;;;;;;4148654;28;20103;-54
2022/02/12 10:20:00;;;;;;;0.50;0.35;;;;;;;;;;4149120;28;20112;-57
2022/02/12 10:22:12;;;;;;;0.60;0.30;;;;;;;;;;4148827;28;20112;-51
2022/02/12 10:24:14;;;;;;;1.75;0.60;;;;;;;;;;4149283;28;20112;-53
2022/02/12 10:26:15;;;;;;;1.17;0.40;;;;;;;;;;4148765;28;20049;-55
2022/02/12 10:28:18;;;;;;;2.03;0.50;;;;;;;;;;4148810;28;20490;-56
2022/02/12 10:30:23;;;;;;;2.35;0.50;;;;;;;;;;4148919;28;20072;-56
2022/02/12 10:32:25;;;;;;;0.95;0.40;;;;;;;;;;4148561;28;20058;-53
2022/02/12 10:34:37;;;;;;;0.65;0.40;;;;;;;;;;4149306;28;20112;-57
2022/02/12 10:36:40;;;;;;;0.70;0.20;;;;;;;;;;4134680;28;20054;-56
2022/02/12 10:38:50;;;;;;;1.55;0.38;;;;;;;;;;4131829;28;20084;-56
2022/02/12 10:41:08;;;;;;;1.10;0.47;;;;;;;;;;4148743;28;20054;-56
2022/02/12 10:43:09;;;;;;;0.95;0.30;;;;;;;;;;4148691;28;20386;-53
2022/02/12 10:45:18;;;;;;;0.93;0.35;;;;;;;;;;4148818;28;20065;-55
2022/02/12 10:47:20;;;;;;;0.80;0.40;;;;;;;;;;4148213;28;20470;-55
2022/02/12 10:49:25;;;;;;;1.08;0.40;;;;;;;;;;4148936;28;20064;-55
2022/02/12 10:51:26;;;;;;;1.38;0.50;;;;;;;;;;4148523;28;20115;-55
2022/02/12 10:53:29;;;;;;;0.40;0.20;;;;;;;;;;4148851;28;20066;-56
2022/02/12 10:55:36;;;;;;;2.45;0.30;;;;;;;;;;4147341;28;20054;-53
2022/02/12 10:57:38;;;;;;;1.15;0.30;;;;;;;;;;4148390;28;20053;-55
2022/02/12 10:59:44;;;;;;;2.72;0.80;;;;;;;;;;4131035;28;20054;-55
2022/02/12 11:01:45;;;;;;;2.08;0.70;;;;;;;;;;4147959;28;20069;-57
2022/02/12 11:03:46;;;;;;;1.70;0.40;;;;;;;;;;4148398;28;20062;-55
2022/02/12 11:05:52;;;;;;;1.52;0.40;;;;;;;;;;4147461;28;20062;-55
2022/02/12 11:07:53;;;;;;;0.95;0.30;;;;;;;;;;4149153;28;20060;-56
2022/02/12 11:09:55;;;;;;;2.22;0.50;;;;;;;;;;4147313;28;20053;-57
2022/02/12 11:11:57;;;;;;;1.90;0.50;;;;;;;;;;4148341;28;20516;-55
2022/02/12 11:13:59;;;;;;;1.63;0.25;;;;;;;;;;4130881;28;20477;-56
2022/02/12 11:16:00;;;;;;;1.55;0.43;;;;;;;;;;4148453;28;20060;-54
2022/02/12 11:18:05;;;;;;;1.13;0.38;;;;;;;;;;4147856;28;20061;-55
2022/02/12 11:20:08;;;;;;;1.58;0.38;;;;;;;;;;4148419;28;20119;-57
2022/02/12 11:22:10;;;;;;;2.17;0.57;;;;;;;;;;4130931;28;20116;-55
2022/02/12 11:24:16;;;;;;;1.27;0.50;;;;;;;;;;4146891;28;20057;-58
2022/02/12 11:26:20;;;;;;;1.48;0.52;;;;;;;;;;4147935;28;20053;-57
2022/02/12 11:28:32;;;;;;;2.25;0.50;;;;;;;;;;4148024;28;20058;-56
2022/02/12 11:30:33;;;;;;;1.45;0.50;;;;;;;;;;4148135;28;20054;-56
2022/02/12 11:32:41;;;;;;;1.50;0.50;;;;;;;;;;4147628;28;20053;-56
2022/02/12 11:35:06;;;;;;;0.80;0.40;;;;;;;;;;4147954;28;20481;-56
2022/02/12 11:37:15;;;;;;;1.27;0.38;;;;;;;;;;4115537;28;20474;-56
2022/02/12 11:39:19;;;;;;;1.50;0.43;;;;;;;;;;4115639;28;20454;-56
2022/02/12 11:41:20;;;;;;;3.63;0.57;;;;;;;;;;4114320;28;20062;-55
2022/02/12 11:43:34;;;;;;;1.90;0.60;;;;;;;;;;4114460;28;20051;-55
2022/02/12 11:45:47;;;;;;;2.65;0.60;;;;;;;;;;4098567;29;20095;-56
2022/02/12 11:48:10;;;;;;;1.38;0.47;;;;;;;;;;4115119;28;20491;-55
2022/02/12 11:50:14;;;;;;;1.73;0.40;;;;;;;;;;4115318;28;20085;-56
2022/02/12 11:52:15;;;;;;;1.33;0.50;;;;;;;;;;4115249;28;20066;-56
2022/02/12 11:54:45;;;;;;;1.52;0.50;;;;;;;;;;4115340;28;20063;-55
2022/02/12 11:56:46;;;;;;;2.05;0.60;;;;;;;;;;4115590;28;20063;-56
2022/02/12 11:58:47;;;;;;;2.75;0.40;;;;;;;;;;4115505;28;20062;-54
2022/02/12 12:00:49;;;;;;;1.50;0.50;;;;;;;;;;4115209;28;20162;-53
2022/02/12 12:02:51;;;;;;;2.25;0.55;;;;;;;;;;4097832;29;20063;-55
2022/02/12 12:05:16;;;;;;;1.77;0.63;;;;;;;;;;4114938;28;20101;-56
2022/02/12 12:07:17;;;;;;;1.00;0.50;;;;;;;;;;4115192;28;20062;-55
2022/02/12 12:09:18;;;;;;;4.15;1.02;;;;;;;;;;4115440;28;20109;-56
2022/02/12 12:11:20;;;;;;;1.92;0.43;;;;;;;;;;4113868;28;20059;-53
2022/02/12 12:13:27;;;;;;;1.23;0.40;;;;;;;;;;4113608;28;20146;-56
2022/02/12 12:15:29;;;;;;;2.03;0.68;;;;;;;;;;4114820;28;20058;-53
2022/02/12 12:17:32;;;;;;;2.20;0.60;;;;;;;;;;4114799;28;20059;-57
2022/02/12 12:19:38;;;;;;;3.20;0.70;;;;;;;;;;4114968;28;20492;-57
2022/02/12 12:21:39;;;;;;;1.45;0.68;;;;;;;;;;4114834;28;20113;-55